Time;durP1;ratioP1;P1;durP2;ratioP2;P2;SDS_P1;SDS_P2;PMS_P1;PMS_P2;Temp;Humidity;BMP_temperature;BMP_pressure;BME280_temperature;BME280_humidity;BME280_pressure;Samples;Min_cycle;Max_cycle;Signal;HPM_P1;HPM_P2
2023/02/21 02:15:07;;;;;;;6.32;1.90;;;3.70;92.50;;;;;;5000906;28;20120;-65
2023/02/21 02:18:12;;;;;;;4.38;1.70;;;3.70;92.80;;;;;;5009248;28;20116;-65
2023/02/21 02:21:06;;;;;;;3.80;1.80;;;3.70;92.70;;;;;;5015533;28;20335;-65
2023/02/21 02:24:10;;;;;;;3.47;1.80;;;3.80;92.60;;;;;;5013667;28;20034;-65
2023/02/21 02:27:00;;;;;;;4.57;1.70;;;3.80;92.40;;;;;;5020770;28;20033;-65
2023/02/21 02:30:00;;;;;;;9.85;1.98;;;3.90;92.10;;;;;;5002916;28;20034;-64
2023/02/21 02:32:26;;;;;;;5.10;1.90;;;4.00;92.00;;;;;;5017150;28;20038;-65
2023/02/21 02:35:20;;;;;;;3.90;1.52;;;4.00;91.90;;;;;;5010772;28;20037;-65
2023/02/21 02:38:01;;;;;;;6.05;1.80;;;4.00;91.90;;;;;;5007282;28;20036;-65
2023/02/21 02:40:29;;;;;;;5.95;1.58;;;4.00;92.10;;;;;;5015294;28;20095;-65
2023/02/21 02:43:20;;;;;;;6.57;1.88;;;4.00;92.30;;;;;;5034875;28;20032;-65
2023/02/21 02:45:52;;;;;;;5.18;2.20;;;3.90;92.60;;;;;;5025580;28;20203;-65
2023/02/21 02:48:30;;;;;;;7.00;1.83;;;4.00;92.60;;;;;;5019657;28;20092;-65
2023/02/21 02:50:59;;;;;;;5.38;1.95;;;4.00;92.70;;;;;;5012785;28;20088;-65
2023/02/21 02:53:27;;;;;;;6.38;1.95;;;3.90;92.90;;;;;;5028218;28;20037;-65
2023/02/21 02:56:05;;;;;;;5.28;1.98;;;3.90;93.00;;;;;;5018639;28;20446;-66
2023/02/21 02:58:37;;;;;;;4.93;1.90;;;3.80;93.10;;;;;;5008417;28;20061;-65
2023/02/21 03:01:33;;;;;;;6.43;2.10;;;3.70;93.40;;;;;;5018183;28;20022;-65
2023/02/21 03:04:33;;;;;;;2.97;1.67;;;3.60;94.10;;;;;;5023566;28;20367;-65
2023/02/21 03:07:15;;;;;;;4.50;1.95;;;3.70;94.10;;;;;;5016875;28;20038;-65
2023/02/21 03:09:46;;;;;;;5.43;1.85;;;3.70;93.70;;;;;;5024906;28;20029;-65
2023/02/21 03:12:28;;;;;;;4.00;2.00;;;3.60;94.20;;;;;;5014399;28;20034;-65
2023/02/21 03:15:18;;;;;;;6.30;1.88;;;3.60;94.40;;;;;;5002528;28;20033;-66
2023/02/21 03:17:50;;;;;;;5.50;1.75;;;3.70;94.30;;;;;;5018231;28;20026;-65
2023/02/21 03:20:17;;;;;;;5.40;1.98;;;3.80;94.00;;;;;;5018697;28;20021;-65
2023/02/21 03:22:44;;;;;;;3.63;1.83;;;3.80;94.00;;;;;;5004922;28;20034;-65
2023/02/21 03:25:13;;;;;;;8.07;2.17;;;3.80;94.00;;;;;;5016329;28;20053;-66
2023/02/21 03:27:40;;;;;;;4.65;2.10;;;3.70;94.10;;;;;;5002519;28;20026;-65
2023/02/21 03:30:07;;;;;;;6.00;1.90;;;3.70;94.20;;;;;;5004743;28;20026;-65
2023/02/21 03:32:45;;;;;;;6.63;2.10;;;3.60;94.40;;;;;;5015968;28;20184;-65
2023/02/21 03:35:11;;;;;;;4.88;2.13;;;3.60;94.30;;;;;;5015731;28;20116;-65
2023/02/21 03:37:40;;;;;;;5.68;1.98;;;3.50;94.70;;;;;;5019506;28;20172;-65
2023/02/21 03:40:09;;;;;;;5.45;2.00;;;3.30;95.10;;;;;;5015931;28;20030;-65
2023/02/21 03:42:35;;;;;;;5.38;1.80;;;3.30;95.40;;;;;;5019970;28;20038;-65
2023/02/21 03:45:01;;;;;;;3.95;1.75;;;3.40;95.30;;;;;;5014895;28;20026;-65
2023/02/21 03:47:26;;;;;;;4.18;1.75;;;3.40;95.10;;;;;;5021657;28;20086;-65
2023/02/21 03:49:52;;;;;;;3.08;1.63;;;3.40;95.00;;;;;;5010905;28;20053;-65
2023/02/21 03:52:17;;;;;;;3.88;1.55;;;3.40;95.10;;;;;;5012071;28;20026;-65
2023/02/21 03:54:46;;;;;;;5.50;2.03;;;3.40;95.00;;;;;;5023340;28;20042;-65
2023/02/21 03:57:12;;;;;;;5.95;1.90;;;3.60;94.50;;;;;;5026323;28;20056;-65
2023/02/21 03:59:37;;;;;;;4.00;1.80;;;3.70;94.10;;;;;;5014375;28;20375;-65
2023/02/21 04:02:06;;;;;;;6.82;2.83;;;3.70;94.20;;;;;;5026796;28;20033;-64
2023/02/21 04:04:34;;;;;;;3.65;1.88;;;3.50;94.00;;;;;;4997718;28;20034;-65
2023/02/21 04:06:59;;;;;;;2.85;1.55;;;3.30;94.40;;;;;;5014129;28;20057;-63
2023/02/21 04:09:25;;;;;;;5.40;1.90;;;3.10;95.50;;;;;;5005396;28;20439;-63
2023/02/21 04:11:54;;;;;;;5.53;2.08;;;3.20;95.90;;;;;;5019463;28;20590;-63
2023/02/21 04:14:19;;;;;;;4.97;1.80;;;3.30;95.90;;;;;;5015733;28;20052;-63
2023/02/21 04:16:45;;;;;;;5.05;1.88;;;3.20;95.70;;;;;;5006746;28;20026;-65
2023/02/21 04:19:10;;;;;;;4.80;2.53;;;3.30;95.60;;;;;;5014425;28;20022;-65
2023/02/21 04:21:36;;;;;;;5.55;1.77;;;3.40;95.20;;;;;;5006643;28;20030;-65
2023/02/21 04:24:02;;;;;;;5.68;1.85;;;3.60;95.00;;;;;;5011197;28;20025;-65
2023/02/21 04:26:28;;;;;;;4.18;2.08;;;3.70;94.30;;;;;;5010203;28;20083;-65
2023/02/21 04:28:55;;;;;;;4.68;2.10;;;3.70;94.10;;;;;;5012869;28;20040;-64
2023/02/21 04:31:21;;;;;;;3.85;1.90;;;3.70;94.10;;;;;;5024638;28;20125;-65
2023/02/21 04:33:47;;;;;;;3.80;1.65;;;3.80;94.70;;;;;;5011351;28;20033;-65
2023/02/21 04:36:13;;;;;;;5.72;2.13;;;3.80;94.60;;;;;;5013209;28;20040;-63
2023/02/21 04:38:39;;;;;;;4.85;2.22;;;3.60;94.80;;;;;;5011015;28;20033;-65
2023/02/21 04:41:05;;;;;;;5.13;2.15;;;3.40;95.40;;;;;;5019932;28;20021;-66
2023/02/21 04:43:30;;;;;;;4.68;2.03;;;3.40;96.00;;;;;;5013009;28;20034;-65
2023/02/21 04:45:56;;;;;;;7.40;2.03;;;3.40;96.10;;;;;;5013396;28;20155;-65
2023/02/21 04:48:21;;;;;;;7.35;2.10;;;3.40;96.10;;;;;;5020454;28;20030;-66
2023/02/21 04:50:50;;;;;;;4.57;2.00;;;3.40;96.10;;;;;;5011889;28;20037;-64
2023/02/21 04:53:16;;;;;;;6.45;2.30;;;3.60;96.10;;;;;;5008501;28;20423;-63
2023/02/21 04:55:41;;;;;;;6.50;1.92;;;3.60;95.90;;;;;;5017534;28;20041;-64
2023/02/21 04:58:07;;;;;;;5.88;2.20;;;3.50;95.90;;;;;;5015486;28;20072;-64
2023/02/21 05:00:35;;;;;;;5.57;2.10;;;3.50;95.90;;;;;;5021573;28;20322;-65
2023/02/21 05:03:01;;;;;;;6.68;2.22;;;3.60;95.90;;;;;;5013401;28;20454;-65
2023/02/21 05:05:26;;;;;;;4.00;1.95;;;3.60;95.90;;;;;;5017317;28;20053;-65
2023/02/21 05:07:52;;;;;;;6.75;2.47;;;3.60;95.50;;;;;;5012528;28;20064;-65
2023/02/21 05:10:18;;;;;;;3.58;1.75;;;3.60;95.50;;;;;;5012004;28;20087;-64
2023/02/21 05:12:44;;;;;;;4.97;1.95;;;3.60;95.60;;;;;;5010139;28;20041;-65
2023/02/21 05:15:11;;;;;;;5.55;2.08;;;3.50;95.80;;;;;;5015632;28;20045;-64
2023/02/21 05:17:36;;;;;;;4.20;2.05;;;3.50;96.00;;;;;;5015451;28;20437;-65
2023/02/21 05:20:10;;;;;;;5.57;1.90;;;3.30;96.20;;;;;;5013355;28;20030;-65
2023/02/21 05:22:39;;;;;;;5.15;2.38;;;3.20;96.60;;;;;;4999283;28;20033;-65
2023/02/21 05:25:23;;;;;;;5.57;2.35;;;3.30;96.90;;;;;;5006016;28;20038;-65
2023/02/21 05:27:50;;;;;;;4.32;2.15;;;3.40;96.90;;;;;;5011995;28;20109;-65
2023/02/21 05:30:18;;;;;;;5.40;2.00;;;3.50;96.80;;;;;;4998949;28;20045;-65
2023/02/21 05:32:44;;;;;;;5.15;2.20;;;3.70;96.80;;;;;;5013463;28;20109;-65
2023/02/21 05:35:10;;;;;;;6.47;2.28;;;3.70;96.50;;;;;;5007156;28;20438;-65
2023/02/21 05:37:36;;;;;;;5.57;2.15;;;3.70;96.40;;;;;;4996150;28;20036;-65
2023/02/21 05:40:04;;;;;;;3.92;1.90;;;3.60;96.70;;;;;;4996974;28;20100;-65
2023/02/21 05:42:29;;;;;;;5.47;2.20;;;3.60;96.70;;;;;;5026124;28;20030;-65
2023/02/21 05:44:55;;;;;;;4.45;2.08;;;3.60;96.70;;;;;;5006437;28;20461;-66
2023/02/21 05:47:20;;;;;;;4.63;2.08;;;3.70;96.60;;;;;;5001574;28;20081;-65
2023/02/21 05:49:46;;;;;;;7.20;3.40;;;3.70;96.70;;;;;;4997715;28;20034;-64
2023/02/21 05:52:16;;;;;;;5.47;2.50;;;3.80;96.50;;;;;;5007517;28;20045;-65
2023/02/21 05:54:42;;;;;;;5.68;2.53;;;3.90;96.20;;;;;;5015182;28;20038;-66
2023/02/21 05:57:08;;;;;;;5.07;2.00;;;3.90;96.20;;;;;;5012675;28;20034;-65
2023/02/21 05:59:33;;;;;;;5.25;2.10;;;3.80;96.20;;;;;;5004975;28;20041;-66
2023/02/21 06:01:59;;;;;;;6.13;2.30;;;3.70;96.70;;;;;;5016160;28;20037;-65
2023/02/21 06:04:24;;;;;;;5.75;2.40;;;3.70;96.90;;;;;;5018386;28;20304;-65
2023/02/21 06:06:50;;;;;;;5.93;3.00;;;3.70;97.10;;;;;;5019247;28;20038;-64
2023/02/21 06:09:17;;;;;;;5.78;2.00;;;3.60;97.20;;;;;;5011604;28;20066;-65
2023/02/21 06:11:44;;;;;;;6.07;2.58;;;3.70;97.20;;;;;;5019146;28;20158;-65
2023/02/21 06:14:15;;;;;;;5.60;2.20;;;3.70;97.10;;;;;;5002299;28;20088;-65
2023/02/21 06:16:41;;;;;;;6.68;2.95;;;3.60;97.30;;;;;;5016317;28;20117;-65
2023/02/21 06:19:13;;;;;;;12.80;8.85;;;3.50;97.40;;;;;;5016819;28;20133;-64
2023/02/21 06:21:40;;;;;;;13.35;6.13;;;3.60;97.60;;;;;;5011011;28;20022;-65
2023/02/21 06:24:07;;;;;;;8.90;5.43;;;3.60;97.50;;;;;;5001566;28;20050;-65
2023/02/21 06:26:33;;;;;;;7.03;4.97;;;3.70;97.30;;;;;;5016054;28;20311;-65
2023/02/21 06:28:58;;;;;;;11.48;6.72;;;3.70;97.10;;;;;;5018498;28;20037;-65
2023/02/21 06:31:24;;;;;;;12.95;8.82;;;3.60;97.50;;;;;;5014427;28;20033;-65
2023/02/21 06:33:50;;;;;;;7.20;4.32;;;3.40;97.70;;;;;;5013757;28;20036;-64
2023/02/21 06:36:19;;;;;;;7.38;4.47;;;3.40;98.00;;;;;;5014626;28;20035;-65
2023/02/21 06:38:50;;;;;;;8.32;3.60;;;3.40;98.00;;;;;;5020133;28;20037;-65
2023/02/21 06:41:18;;;;;;;10.20;5.68;;;3.50;97.90;;;;;;5016514;28;20030;-64
2023/02/21 06:43:44;;;;;;;11.13;4.97;;;3.60;97.80;;;;;;5010220;28;20026;-65
2023/02/21 06:46:12;;;;;;;7.80;5.03;;;3.60;97.80;;;;;;5008942;28;20033;-65
2023/02/21 06:48:37;;;;;;;13.88;7.25;;;3.60;98.00;;;;;;5015346;28;20399;-65
2023/02/21 06:51:09;;;;;;;10.27;6.97;;;3.50;98.00;;;;;;5014329;28;20023;-65
2023/02/21 06:53:37;;;;;;;9.48;3.70;;;3.30;98.00;;;;;;5006722;28;20022;-65
2023/02/21 06:56:07;;;;;;;10.50;3.50;;;3.40;98.00;;;;;;5015817;28;20323;-65
2023/02/21 06:58:33;;;;;;;6.15;2.75;;;3.60;98.00;;;;;;5031380;28;20030;-64
2023/02/21 07:00:59;;;;;;;6.53;2.90;;;3.80;98.00;;;;;;5016168;28;20022;-64
2023/02/21 07:03:28;;;;;;;6.40;2.63;;;3.90;97.50;;;;;;5034826;28;20030;-64
2023/02/21 07:05:54;;;;;;;7.28;3.00;;;4.00;97.50;;;;;;5016519;28;20036;-63
2023/02/21 07:08:19;;;;;;;6.50;2.80;;;3.90;97.70;;;;;;5010591;28;20034;-64
2023/02/21 07:10:48;;;;;;;10.13;5.78;;;4.00;98.00;;;;;;5006691;28;20026;-65
2023/02/21 07:13:13;;;;;;;8.68;4.68;;;4.10;97.70;;;;;;5003136;28;20042;-65
2023/02/21 07:15:39;;;;;;;9.45;6.25;;;3.90;97.30;;;;;;5006564;28;20038;-65
2023/02/21 07:18:10;;;;;;;6.38;3.50;;;3.90;97.80;;;;;;5014413;28;20025;-65
2023/02/21 07:20:35;;;;;;;5.90;2.83;;;4.00;98.00;;;;;;5012039;28;20033;-65
2023/02/21 07:23:01;;;;;;;6.10;2.63;;;4.20;98.00;;;;;;5007141;28;20030;-65
2023/02/21 07:25:27;;;;;;;7.53;2.88;;;4.40;97.60;;;;;;5007428;28;20045;-65
2023/02/21 07:27:52;;;;;;;4.20;2.55;;;4.40;97.30;;;;;;5009328;28;20029;-65
2023/02/21 07:30:18;;;;;;;6.82;3.10;;;4.50;97.00;;;;;;5015235;28;20356;-65
2023/02/21 07:32:44;;;;;;;5.15;2.78;;;4.80;96.10;;;;;;5015485;28;20093;-65
2023/02/21 07:35:10;;;;;;;7.25;3.40;;;5.10;95.80;;;;;;5015049;28;20037;-65
2023/02/21 07:37:35;;;;;;;5.80;2.75;;;5.30;95.10;;;;;;5023190;28;20041;-65
2023/02/21 07:40:01;;;;;;;9.65;3.28;;;5.30;94.80;;;;;;5015797;28;20120;-65
2023/02/21 07:42:30;;;;;;;7.35;3.30;;;5.40;95.10;;;;;;5016608;28;20022;-65
2023/02/21 07:44:56;;;;;;;8.55;3.50;;;5.50;95.50;;;;;;5008397;28;20098;-65
2023/02/21 07:47:22;;;;;;;5.88;2.70;;;5.70;94.90;;;;;;5010833;28;20034;-65
2023/02/21 07:49:50;;;;;;;7.53;2.60;;;6.10;94.00;;;;;;5023056;28;20063;-65
2023/02/21 07:52:18;;;;;;;7.97;2.22;;;6.30;93.30;;;;;;5012905;28;20083;-65
2023/02/21 07:54:47;;;;;;;4.85;2.00;;;6.50;91.90;;;;;;5011986;28;20056;-65
2023/02/21 07:57:15;;;;;;;3.53;1.90;;;6.50;91.70;;;;;;5006645;28;20045;-65
2023/02/21 07:59:41;;;;;;;5.55;2.00;;;6.60;91.50;;;;;;5003580;28;20032;-65
2023/02/21 08:02:08;;;;;;;4.30;2.30;;;6.80;91.40;;;;;;5017507;28;20109;-65
2023/02/21 08:04:34;;;;;;;7.03;2.17;;;7.00;91.00;;;;;;5022389;28;20327;-65
2023/02/21 08:07:00;;;;;;;3.47;1.67;;;7.20;90.40;;;;;;5012730;28;20037;-66
2023/02/21 08:09:26;;;;;;;4.50;1.70;;;7.40;89.50;;;;;;5033167;28;20421;-65
2023/02/21 08:11:52;;;;;;;4.40;1.35;;;7.70;88.50;;;;;;5026474;28;20100;-65
2023/02/21 08:14:17;;;;;;;4.05;1.55;;;7.90;88.30;;;;;;5006835;28;20060;-65
2023/02/21 08:16:43;;;;;;;4.03;1.60;;;8.00;89.20;;;;;;5015654;28;20037;-65
2023/02/21 08:19:11;;;;;;;4.53;1.67;;;8.10;89.10;;;;;;5016597;28;20037;-65
2023/02/21 08:21:37;;;;;;;4.38;1.45;;;8.30;88.90;;;;;;5016420;28;20350;-65
2023/02/21 08:24:03;;;;;;;5.72;1.33;;;8.70;88.80;;;;;;5005436;28;20034;-65
2023/02/21 08:26:28;;;;;;;5.47;1.90;;;9.90;85.80;;;;;;5006995;28;20038;-65
2023/02/21 08:28:54;;;;;;;5.97;2.60;;;11.70;81.70;;;;;;5011699;28;20415;-65
2023/02/21 08:31:20;;;;;;;4.78;1.80;;;13.10;77.20;;;;;;5008740;28;21684;-65
2023/02/21 08:33:46;;;;;;;8.02;2.17;;;14.40;73.70;;;;;;5013429;28;20036;-66
2023/02/21 08:36:11;;;;;;;4.70;1.20;;;15.50;71.60;;;;;;5019979;28;20030;-65
2023/02/21 08:38:38;;;;;;;1.95;0.93;;;16.00;69.60;;;;;;5010282;28;20030;-66
2023/02/21 08:41:04;;;;;;;3.78;0.90;;;17.00;67.50;;;;;;5014201;28;20022;-66
2023/02/21 08:43:31;;;;;;;4.05;1.00;;;17.90;64.40;;;;;;5004193;28;20027;-66
2023/02/21 08:45:56;;;;;;;4.28;1.50;;;18.70;62.00;;;;;;5003181;28;20419;-66
2023/02/21 08:48:22;;;;;;;4.93;1.45;;;18.80;61.10;;;;;;5008176;28;20041;-65
2023/02/21 08:50:47;;;;;;;3.85;0.98;;;18.80;61.00;;;;;;5012752;28;20022;-66
2023/02/21 08:53:14;;;;;;;4.50;1.10;;;19.30;61.60;;;;;;5007197;28;20426;-65
2023/02/21 08:55:39;;;;;;;5.53;1.20;;;19.60;60.30;;;;;;5011699;28;20134;-66
2023/02/21 08:58:05;;;;;;;7.00;2.40;;;20.00;59.20;;;;;;5009422;28;20109;-66
2023/02/21 09:00:30;;;;;;;8.13;2.38;;;20.30;58.50;;;;;;5009283;28;20045;-65
2023/02/21 09:02:58;;;;;;;4.70;2.28;;;19.70;59.50;;;;;;5006809;28;20022;-66
2023/02/21 09:05:29;;;;;;;6.22;1.95;;;19.40;58.80;;;;;;5007674;28;20407;-66
2023/02/21 09:08:00;;;;;;;5.60;2.55;;;19.10;58.40;;;;;;5002781;28;20029;-65
2023/02/21 09:10:28;;;;;;;4.43;1.50;;;19.20;58.00;;;;;;5016113;28;20025;-66
2023/02/21 09:12:53;;;;;;;5.47;1.73;;;18.90;57.40;;;;;;5004668;28;20026;-66
2023/02/21 09:15:19;;;;;;;4.32;1.63;;;19.50;57.60;;;;;;5011521;28;20137;-65
2023/02/21 09:17:45;;;;;;;5.10;1.70;;;19.90;56.00;;;;;;5012251;28;20425;-65
2023/02/21 09:20:15;;;;;;;4.90;1.85;;;20.50;55.50;;;;;;5011387;28;20030;-65
2023/02/21 09:22:45;;;;;;;6.15;2.03;;;20.50;54.00;;;;;;5007891;28;20054;-65
2023/02/21 09:25:15;;;;;;;5.03;1.80;;;20.60;54.00;;;;;;5010098;28;20064;-65
2023/02/21 09:27:41;;;;;;;3.75;1.40;;;20.10;54.40;;;;;;5002045;28;20457;-65
2023/02/21 09:30:13;;;;;;;6.38;2.00;;;19.50;55.80;;;;;;5000533;28;20026;-65
2023/02/21 09:32:41;;;;;;;4.75;1.40;;;20.30;55.10;;;;;;5014758;28;20370;-65
2023/02/21 09:35:08;;;;;;;4.03;1.30;;;20.00;54.40;;;;;;5003310;28;20029;-65
2023/02/21 09:37:42;;;;;;;3.13;0.90;;;19.90;54.50;;;;;;5014824;28;20061;-65
2023/02/21 09:40:28;;;;;;;6.90;3.20;;;19.30;55.40;;;;;;5006819;28;20118;-65
2023/02/21 09:42:56;;;;;;;4.43;1.42;;;19.90;54.40;;;;;;5003625;28;20383;-65
2023/02/21 09:45:23;;;;;;;1.80;0.80;;;19.20;55.40;;;;;;4999239;28;20031;-65
2023/02/21 09:47:53;;;;;;;3.88;0.95;;;19.30;55.50;;;;;;5016637;28;20092;-65
2023/02/21 09:50:26;;;;;;;2.85;1.02;;;19.30;55.10;;;;;;5021489;28;20480;-65
2023/02/21 09:53:01;;;;;;;3.20;1.10;;;19.20;55.50;;;;;;5017958;28;20034;-65
2023/02/21 09:55:29;;;;;;;2.63;0.88;;;18.90;55.90;;;;;;5003031;28;20053;-64
2023/02/21 09:57:55;;;;;;;3.92;1.42;;;19.10;56.00;;;;;;5017766;28;20369;-64
2023/02/21 10:00:35;;;;;;;4.38;1.00;;;19.10;55.80;;;;;;5023416;28;20021;-64
2023/02/21 10:03:30;;;;;;;4.45;1.23;;;19.00;56.90;;;;;;5002069;28;20026;-64
2023/02/21 10:06:33;;;;;;;4.72;1.40;;;19.30;55.30;;;;;;5009649;28;20022;-65
2023/02/21 10:09:07;;;;;;;5.78;1.90;;;18.90;56.10;;;;;;5018604;28;20026;-66
2023/02/21 10:12:01;;;;;;;3.90;1.83;;;18.60;57.30;;;;;;5002652;28;20034;-65
2023/02/21 10:14:59;;;;;;;4.65;1.55;;;18.80;57.80;;;;;;5002574;28;20037;-65
2023/02/21 10:17:37;;;;;;;3.30;1.27;;;18.90;56.90;;;;;;5014791;28;20419;-66
2023/02/21 10:20:12;;;;;;;2.58;1.00;;;19.00;56.90;;;;;;5009741;28;20022;-66
2023/02/21 10:22:41;;;;;;;4.45;1.52;;;18.80;56.80;;;;;;5014300;28;20499;-65
2023/02/21 10:25:30;;;;;;;3.72;1.15;;;19.10;57.70;;;;;;5001484;28;20037;-63
2023/02/21 10:27:57;;;;;;;3.90;1.30;;;19.10;56.60;;;;;;5008517;28;20029;-65
2023/02/21 10:30:42;;;;;;;2.63;1.15;;;19.10;56.60;;;;;;5006690;28;20498;-64
2023/02/21 10:33:08;;;;;;;2.45;1.10;;;19.10;55.70;;;;;;5010878;28;20029;-65
2023/02/21 10:35:35;;;;;;;5.20;1.40;;;19.00;57.10;;;;;;5010367;28;20033;-65
2023/02/21 10:38:09;;;;;;;4.28;1.20;;;19.00;56.90;;;;;;5017422;28;20716;-65
2023/02/21 10:40:56;;;;;;;3.10;1.23;;;18.90;56.40;;;;;;5006803;28;20108;-65
2023/02/21 10:43:33;;;;;;;3.42;1.33;;;18.80;56.90;;;;;;5016450;28;20026;-64
2023/02/21 10:46:09;;;;;;;4.45;1.00;;;19.20;56.00;;;;;;5011227;28;20017;-65
2023/02/21 10:48:36;;;;;;;5.35;1.20;;;19.30;54.60;;;;;;5013643;28;20034;-66
2023/02/21 10:51:07;;;;;;;4.60;1.20;;;19.40;55.10;;;;;;5016494;28;20022;-65
2023/02/21 10:53:37;;;;;;;3.05;1.20;;;19.40;55.50;;;;;;5010847;28;20109;-65
2023/02/21 10:56:12;;;;;;;3.70;1.20;;;19.40;56.00;;;;;;5013259;28;20036;-65
2023/02/21 10:58:59;;;;;;;4.03;1.20;;;19.50;55.70;;;;;;5014954;28;20046;-65
2023/02/21 11:01:30;;;;;;;2.40;1.00;;;20.00;54.80;;;;;;5013480;28;20030;-65
2023/02/21 11:04:01;;;;;;;4.18;1.30;;;20.00;54.00;;;;;;5009945;28;20026;-65
2023/02/21 11:06:30;;;;;;;4.32;1.85;;;19.70;54.20;;;;;;5011184;28;20026;-65
2023/02/21 11:08:56;;;;;;;4.25;1.20;;;19.40;55.90;;;;;;5013539;28;20026;-65
2023/02/21 11:11:37;;;;;;;4.47;1.40;;;19.80;54.80;;;;;;5016873;28;20076;-65
2023/02/21 11:14:21;;;;;;;3.22;1.10;;;19.90;54.50;;;;;;5008273;28;20085;-65
2023/02/21 11:17:06;;;;;;;3.78;1.30;;;19.70;56.10;;;;;;5014977;28;20037;-66
2023/02/21 11:19:47;;;;;;;8.23;1.33;;;20.20;54.70;;;;;;5009288;28;20022;-65
2023/02/21 11:22:14;;;;;;;5.07;1.30;;;20.20;55.20;;;;;;5011251;28;20431;-64
2023/02/21 11:25:04;;;;;;;2.72;1.30;;;20.60;54.60;;;;;;5002174;28;20030;-65
2023/02/21 11:27:34;;;;;;;3.25;1.20;;;20.20;53.40;;;;;;5015911;28;20464;-64
2023/02/21 11:30:08;;;;;;;3.60;1.05;;;19.60;55.60;;;;;;4997575;28;20077;-65
2023/02/21 11:32:37;;;;;;;2.80;1.10;;;19.80;55.30;;;;;;5003385;28;20022;-65
2023/02/21 11:35:26;;;;;;;3.10;1.23;;;20.60;53.50;;;;;;5018061;28;20030;-65
2023/02/21 11:37:57;;;;;;;3.03;1.20;;;20.80;53.70;;;;;;5009594;28;20045;-65
2023/02/21 11:40:29;;;;;;;4.20;1.65;;;20.70;54.00;;;;;;5010158;28;20418;-65
2023/02/21 11:43:27;;;;;;;4.60;1.20;;;21.00;53.20;;;;;;5014695;28;20030;-65
2023/02/21 11:45:53;;;;;;;3.70;1.17;;;20.20;53.40;;;;;;5013910;28;20018;-65
2023/02/21 11:48:26;;;;;;;4.07;1.13;;;19.50;54.70;;;;;;5000563;28;20080;-65
2023/02/21 11:50:53;;;;;;;3.38;1.25;;;19.00;56.00;;;;;;5014368;28;20033;-65
2023/02/21 11:53:21;;;;;;;2.35;1.00;;;19.10;55.60;;;;;;5012417;28;20322;-65
2023/02/21 11:56:10;;;;;;;3.38;0.98;;;19.30;55.80;;;;;;5001642;28;20432;-65
2023/02/21 11:58:44;;;;;;;4.43;1.17;;;19.90;54.20;;;;;;5013235;28;20053;-65
2023/02/21 12:01:20;;;;;;;3.47;0.90;;;19.80;55.30;;;;;;5005806;28;20101;-65
2023/02/21 12:03:49;;;;;;;2.30;1.02;;;19.80;54.90;;;;;;5011192;28;20041;-65
2023/02/21 12:06:27;;;;;;;4.03;1.15;;;20.40;53.70;;;;;;5007274;28;20032;-65
2023/02/21 12:09:00;;;;;;;2.33;0.85;;;20.60;53.00;;;;;;5009415;28;20030;-65
2023/02/21 12:11:49;;;;;;;3.05;0.90;;;20.50;54.00;;;;;;4999540;28;20049;-65
2023/02/21 12:14:56;;;;;;;2.15;0.82;;;20.50;53.10;;;;;;5015542;28;20030;-65
2023/02/21 12:17:25;;;;;;;1.90;0.80;;;20.70;52.80;;;;;;5009495;28;20077;-65
2023/02/21 12:20:02;;;;;;;1.98;0.90;;;20.40;52.80;;;;;;5004013;28;20357;-65
2023/02/21 12:23:05;;;;;;;3.42;1.10;;;20.20;54.30;;;;;;5008160;28;20037;-65
2023/02/21 12:25:58;;;;;;;3.55;1.10;;;20.10;54.70;;;;;;5006678;28;20121;-65
2023/02/21 12:29:04;;;;;;;3.10;1.23;;;20.10;55.20;;;;;;5012064;28;20076;-65
2023/02/21 12:31:49;;;;;;;3.20;1.23;;;19.80;54.50;;;;;;5008533;28;20052;-65
2023/02/21 12:34:34;;;;;;;4.15;1.27;;;19.70;55.90;;;;;;5005086;28;20109;-66
2023/02/21 12:37:26;;;;;;;5.22;1.92;;;19.40;56.90;;;;;;5000239;28;20335;-65
2023/02/21 12:39:54;;;;;;;3.92;1.65;;;19.40;56.30;;;;;;4997944;28;20033;-64
2023/02/21 12:42:23;;;;;;;5.35;1.75;;;19.20;57.60;;;;;;5007411;28;20029;-65
2023/02/21 12:45:00;;;;;;;4.82;1.77;;;19.20;57.70;;;;;;5002161;28;20819;-65
2023/02/21 12:47:47;;;;;;;5.03;2.28;;;19.50;57.80;;;;;;5003726;28;20030;-64
2023/02/21 12:50:24;;;;;;;10.98;1.95;;;19.50;57.50;;;;;;5003442;28;20034;-63
2023/02/21 12:53:13;;;;;;;5.07;1.92;;;19.60;57.50;;;;;;5011326;28;20022;-63
2023/02/21 12:55:44;;;;;;;6.57;2.20;;;19.60;57.60;;;;;;5006601;28;20194;-64
2023/02/21 12:58:30;;;;;;;5.35;2.28;;;19.50;58.10;;;;;;5017516;28;20108;-64
2023/02/21 13:00:59;;;;;;;8.38;2.10;;;19.20;58.00;;;;;;5007265;28;20062;-65
2023/02/21 13:03:35;;;;;;;7.22;2.22;;;18.90;58.40;;;;;;5007597;28;20168;-65
2023/02/21 13:06:14;;;;;;;7.15;2.28;;;18.60;59.50;;;;;;5015038;28;20022;-65
2023/02/21 13:08:53;;;;;;;5.10;2.13;;;18.80;59.60;;;;;;5011200;28;20022;-65
2023/02/21 13:11:30;;;;;;;4.45;1.83;;;19.00;59.30;;;;;;5008025;28;21778;-65
2023/02/21 13:13:58;;;;;;;6.43;2.10;;;18.90;58.60;;;;;;5008414;28;20036;-65
2023/02/21 13:16:24;;;;;;;5.20;1.88;;;19.00;59.40;;;;;;5013521;28;20052;-65
2023/02/21 13:18:58;;;;;;;5.22;1.98;;;19.10;58.50;;;;;;5014321;28;20030;-65
2023/02/21 13:21:48;;;;;;;6.13;1.98;;;19.20;57.80;;;;;;5010382;28;20022;-64
2023/02/21 13:24:59;;;;;;;8.38;1.67;;;19.20;57.30;;;;;;5035824;28;20026;-64
2023/02/21 13:27:33;;;;;;;7.80;1.75;;;19.10;57.00;;;;;;5005238;28;20038;-65
2023/02/21 13:30:13;;;;;;;3.72;1.38;;;18.90;58.20;;;;;;5010663;28;20423;-64
2023/02/21 13:32:48;;;;;;;4.82;1.40;;;18.90;57.40;;;;;;5009809;28;20314;-65
2023/02/21 13:35:20;;;;;;;4.40;1.65;;;18.90;57.80;;;;;;5013825;28;20030;-64
2023/02/21 13:37:49;;;;;;;3.70;1.40;;;18.60;57.50;;;;;;5002742;28;20421;-65
2023/02/21 13:40:34;;;;;;;3.05;1.20;;;18.50;57.40;;;;;;5011582;28;20022;-64
2023/02/21 13:43:20;;;;;;;5.38;1.20;;;18.40;57.40;;;;;;5011682;28;20037;-64
2023/02/21 13:45:46;;;;;;;4.30;1.40;;;18.40;58.20;;;;;;4997311;28;20036;-64
2023/02/21 13:48:19;;;;;;;2.95;1.42;;;18.60;58.10;;;;;;5005819;28;20104;-63
2023/02/21 13:50:45;;;;;;;6.40;1.23;;;18.60;57.30;;;;;;5011236;28;20042;-65
2023/02/21 13:53:21;;;;;;;2.80;1.10;;;18.60;58.10;;;;;;5010743;28;20430;-64
2023/02/21 13:56:07;;;;;;;4.28;1.10;;;18.50;57.90;;;;;;5013518;28;20124;-64
2023/02/21 13:58:39;;;;;;;2.63;1.10;;;18.30;58.10;;;;;;5004339;28;20370;-64
2023/02/21 14:01:29;;;;;;;4.60;1.30;;;18.30;57.60;;;;;;5012887;28;20109;-64
2023/02/21 14:03:58;;;;;;;4.55;1.40;;;18.50;57.70;;;;;;5007174;28;20442;-64
2023/02/21 14:06:37;;;;;;;4.25;1.50;;;18.50;57.20;;;;;;5014908;28;20033;-64
2023/02/21 14:09:15;;;;;;;5.80;1.30;;;18.50;57.90;;;;;;5007894;28;20026;-64
2023/02/21 14:11:50;;;;;;;4.18;1.58;;;18.50;58.60;;;;;;5011606;28;20018;-64
2023/02/21 14:14:29;;;;;;;3.95;1.40;;;18.60;57.70;;;;;;5014299;28;20331;-64
2023/02/21 14:17:03;;;;;;;4.97;1.48;;;18.70;57.90;;;;;;5012685;28;20105;-64
2023/02/21 14:19:50;;;;;;;5.18;1.10;;;18.90;57.60;;;;;;5015639;28;20431;-64
2023/02/21 14:22:27;;;;;;;4.15;1.20;;;18.90;58.10;;;;;;5006065;28;20066;-64
2023/02/21 14:25:18;;;;;;;6.72;1.45;;;19.10;57.70;;;;;;5016566;28;20057;-64
2023/02/21 14:27:44;;;;;;;3.80;1.15;;;19.10;57.10;;;;;;5016199;28;20129;-64
2023/02/21 14:30:09;;;;;;;5.50;1.60;;;19.30;56.40;;;;;;5012823;28;20102;-65
2023/02/21 14:32:42;;;;;;;3.50;1.00;;;19.40;56.50;;;;;;5012514;28;20408;-64
2023/02/21 14:35:28;;;;;;;3.88;1.33;;;19.60;56.90;;;;;;5006856;28;20046;-65
2023/02/21 14:38:02;;;;;;;4.15;1.40;;;19.50;55.90;;;;;;5007490;28;20068;-64
2023/02/21 14:40:33;;;;;;;4.10;1.10;;;19.60;56.10;;;;;;5017335;28;20405;-64
2023/02/21 14:43:01;;;;;;;3.83;1.42;;;19.60;56.00;;;;;;5016824;28;20032;-64
2023/02/21 14:45:35;;;;;;;3.95;0.93;;;19.70;56.50;;;;;;5016420;28;20037;-64
2023/02/21 14:48:20;;;;;;;3.08;1.00;;;19.50;56.20;;;;;;5013009;28;20034;-64
2023/02/21 14:51:03;;;;;;;;;;;19.50;56.20;;;;;;5008248;28;20022;-64
2023/02/21 14:54:04;;;;;;;4.43;1.10;;;20.20;55.70;;;;;;5015836;28;19909;-64
2023/02/21 14:56:38;;;;;;;3.53;1.20;;;21.00;54.50;;;;;;5016076;28;20080;-65
2023/02/21 14:59:30;;;;;;;3.55;1.20;;;21.50;53.50;;;;;;5014371;28;20129;-64
2023/02/21 15:02:09;;;;;;;4.45;1.30;;;21.60;53.10;;;;;;5015817;28;20026;-64
2023/02/21 15:04:42;;;;;;;2.97;0.95;;;21.60;53.40;;;;;;5016317;28;20105;-64
2023/02/21 15:07:27;;;;;;;3.38;1.00;;;22.00;53.00;;;;;;5012554;28;20044;-64
2023/02/21 15:10:11;;;;;;;;;;;21.30;53.40;;;;;;5017749;28;20441;-64
2023/02/21 15:12:45;;;;;;;3.33;1.00;;;21.20;53.60;;;;;;5011115;28;20211;-63
2023/02/21 15:15:24;;;;;;;2.60;1.02;;;21.10;54.30;;;;;;5008091;28;20027;-63
2023/02/21 15:18:08;;;;;;;3.00;1.05;;;21.50;53.50;;;;;;5018403;28;20026;-64
2023/02/21 15:20:39;;;;;;;3.35;1.17;;;21.30;53.30;;;;;;5011453;28;20112;-64
2023/02/21 15:23:28;;;;;;;2.58;1.02;;;20.40;55.30;;;;;;5016328;28;20040;-64
2023/02/21 15:25:56;;;;;;;3.60;1.10;;;19.70;55.90;;;;;;5006455;28;20034;-64
2023/02/21 15:28:25;;;;;;;2.97;1.20;;;20.20;55.80;;;;;;5014349;28;20105;-64
2023/02/21 15:31:01;;;;;;;3.80;1.30;;;21.10;54.30;;;;;;5014263;28;20105;-64
2023/02/21 15:33:30;;;;;;;5.15;1.38;;;21.00;54.80;;;;;;5015796;28;20124;-64
2023/02/21 15:35:59;;;;;;;3.45;1.25;;;20.70;54.80;;;;;;5015179;28;20068;-64